Time;durP1;ratioP1;P1;durP2;ratioP2;P2;SDS_P1;SDS_P2;PMS_P1;PMS_P2;Temp;Humidity;BMP_temperature;BMP_pressure;BME280_temperature;BME280_humidity;BME280_pressure;Samples;Min_cycle;Max_cycle;Signal;HPM_P1;HPM_P2
2022/08/23 00:01:59;;;;;;;;;2.00;2.00;;;;;21.63;69.56;101008.72;5080544;28;45210;-75
2022/08/23 00:04:45;;;;;;;;;2.00;2.00;;;;;21.56;69.10;100999.94;5080098;28;45563;-75
2022/08/23 00:07:12;;;;;;;;;2.00;2.00;;;;;21.58;69.22;101008.66;5080147;28;46184;-75
2022/08/23 00:09:38;;;;;;;;;2.00;2.00;;;;;21.54;69.49;101005.59;5079728;28;45460;-74
2022/08/23 00:12:13;;;;;;;;;3.33;2.67;;;;;21.52;69.85;101001.50;5080209;28;45319;-75
2022/08/23 00:14:43;;;;;;;;;1.00;1.00;;;;;21.50;69.54;101000.91;5079978;28;45568;-74
2022/08/23 00:17:10;;;;;;;;;2.67;2.67;;;;;21.49;69.78;100996.56;5082674;27;45908;-75
2022/08/23 00:19:36;;;;;;;;;2.67;2.67;;;;;21.41;70.17;100985.09;5079751;28;45410;-75
2022/08/23 00:22:03;;;;;;;;;2.00;2.00;;;;;21.35;70.06;100974.41;5080035;28;45369;-75
2022/08/23 00:24:28;;;;;;;;;2.33;2.33;;;;;21.43;69.96;100996.47;5079657;28;45757;-75
2022/08/23 00:27:03;;;;;;;;;2.33;1.33;;;;;21.43;69.93;100990.25;5080063;28;46354;-75
2022/08/23 00:29:39;;;;;;;;;3.00;3.00;;;;;21.38;70.16;100996.38;5079895;28;45356;-75
2022/08/23 00:32:07;;;;;;;;;3.00;3.00;;;;;21.38;70.74;100990.16;5080168;28;45402;-75
2022/08/23 00:34:34;;;;;;;;;2.00;2.00;;;;;21.37;70.43;100996.63;5079873;28;45608;-75
2022/08/23 00:37:00;;;;;;;;;2.33;2.33;;;;;21.35;70.76;101004.16;5079594;28;45314;-74
2022/08/23 00:39:25;;;;;;;;;3.00;3.00;;;;;21.33;70.38;100988.16;5079359;28;45382;-75
2022/08/23 00:41:51;;;;;;;;;3.33;3.33;;;;;21.36;70.30;100990.38;5079197;28;45369;-75
2022/08/23 00:47:41;;;;;;;;;0.00;0.00;;;;;21.28;70.61;100983.47;5036958;28;45490;-75
2022/08/23 00:50:29;;;;;;;;;3.67;3.00;;;;;21.30;70.57;100986.78;5037039;28;45518;-75
2022/08/23 00:53:19;;;;;;;;;4.00;4.00;;;;;21.27;70.75;100984.56;5049465;28;45680;-75
2022/08/23 00:55:48;;;;;;;;;5.00;5.00;;;;;21.20;70.58;100973.06;5079131;28;45339;-75
2022/08/23 00:58:17;;;;;;;;;4.67;4.67;;;;;21.20;70.59;100978.47;5079457;28;45754;-75
2022/08/23 01:00:43;;;;;;;;;4.00;4.00;;;;;21.16;71.03;100980.81;5079283;28;45287;-75
2022/08/23 01:03:10;;;;;;;;;4.00;4.00;;;;;21.10;71.17;100972.88;5079748;28;45322;-75
2022/08/23 01:05:53;;;;;;;;;6.00;5.00;;;;;21.15;70.87;100983.75;5079322;28;45425;-75
2022/08/23 01:08:22;;;;;;;;;4.00;3.00;;;;;21.09;71.25;100971.19;5079136;28;45287;-75
2022/08/23 01:10:55;;;;;;;;;6.00;5.67;;;;;21.04;71.81;100986.25;5079143;28;45391;-75
2022/08/23 01:13:28;;;;;;;;;5.33;4.00;;;;;21.01;71.52;100983.22;5079443;28;45960;-75
2022/08/23 01:16:20;;;;;;;;;4.00;4.00;;;;;20.99;71.80;100985.34;5081782;27;45234;-76
2022/08/23 01:18:47;;;;;;;;;4.00;4.00;;;;;20.99;71.41;100988.88;5068347;28;45262;-75
2022/08/23 01:21:21;;;;;;;;;4.33;4.33;;;;;20.98;71.59;100981.00;5079099;28;45480;-75
2022/08/23 01:23:59;;;;;;;;;2.67;2.67;;;;;21.01;71.36;101002.94;5079100;28;45236;-75
2022/08/23 01:26:26;;;;;;;;;3.00;3.00;;;;;20.90;71.77;100990.28;5079067;28;45460;-75
2022/08/23 01:28:53;;;;;;;;;3.00;3.00;;;;;20.94;71.46;101008.50;5079110;28;45413;-75
2022/08/23 01:31:20;;;;;;;;;5.67;5.67;;;;;20.90;72.08;101001.09;5078913;28;45390;-75
2022/08/23 01:33:50;;;;;;;;;4.00;4.00;;;;;20.85;71.97;100995.53;5079209;28;45356;-75
2022/08/23 01:36:16;;;;;;;;;4.00;3.33;;;;;20.81;72.42;100996.00;5078781;28;46098;-75
2022/08/23 01:38:42;;;;;;;;;3.00;3.00;;;;;20.81;71.82;100998.72;5078216;28;45503;-76
2022/08/23 01:41:08;;;;;;;;;4.67;3.67;;;;;20.75;72.03;100999.69;5085298;27;45373;-75
2022/08/23 01:43:34;;;;;;;;;5.00;4.00;;;;;20.78;72.04;101003.78;5078957;28;45328;-75
2022/08/23 01:46:12;;;;;;;;;4.00;2.00;;;;;20.90;72.13;101006.50;5078923;28;45370;-75
2022/08/23 01:48:38;;;;;;;;;3.33;3.33;;;;;20.87;72.31;101002.38;5078580;28;45331;-75
2022/08/23 01:51:04;;;;;;;;;3.00;2.00;;;;;20.80;72.04;100990.88;5078713;28;45374;-75
2022/08/23 01:53:29;;;;;;;;;3.00;3.00;;;;;20.74;72.26;100998.03;5078617;28;45346;-75
2022/08/23 01:55:55;;;;;;;;;3.00;3.00;;;;;20.73;72.22;100993.69;5082002;28;45363;-75
2022/08/23 01:58:21;;;;;;;;;0.00;0.00;;;;;20.72;72.53;101002.03;5082243;28;46704;-75
2022/08/23 02:00:46;;;;;;;;;3.00;3.00;;;;;20.68;72.31;100994.38;5082217;28;45319;-76
2022/08/23 02:03:12;;;;;;;;;5.00;3.00;;;;;20.66;72.26;100993.81;5082685;28;45321;-75
2022/08/23 02:05:41;;;;;;;;;4.33;4.33;;;;;20.68;72.50;100993.56;5082379;28;45406;-75
2022/08/23 02:10:52;;;;;;;;;2.00;2.00;;;;;20.65;72.90;101007.56;5081943;28;45232;-75
2022/08/23 02:13:18;;;;;;;;;2.67;2.00;;;;;20.59;72.73;100995.00;5082014;28;45362;-75
2022/08/23 02:15:45;;;;;;;;;2.67;2.67;;;;;20.56;73.26;100996.25;5082881;27;45295;-75
2022/08/23 02:18:12;;;;;;;;;4.33;4.00;;;;;20.62;72.95;101008.03;5083206;27;45550;-75
2022/08/23 02:20:47;;;;;;;;;3.00;3.00;;;;;20.55;73.36;101003.56;5081840;28;45352;-75
2022/08/23 02:23:13;;;;;;;;;3.67;1.33;;;;;20.56;73.39;101007.91;5081610;28;45372;-76
2022/08/23 02:25:39;;;;;;;;;2.00;2.00;;;;;20.56;73.79;101007.91;5081737;28;45369;-75
2022/08/23 02:28:05;;;;;;;;;3.00;3.00;;;;;20.55;73.70;101016.22;5081696;28;45476;-75
2022/08/23 02:30:30;;;;;;;;;2.33;2.33;;;;;20.45;73.50;101006.03;5081880;28;45726;-75
2022/08/23 02:32:55;;;;;;;;;1.00;1.00;;;;;20.43;73.24;101008.97;5082003;28;45288;-76
2022/08/23 02:35:21;;;;;;;;;3.00;3.00;;;;;20.50;73.74;101016.94;5081581;28;45271;-75
2022/08/23 02:37:47;;;;;;;;;3.00;3.00;;;;;20.48;73.69;101021.75;5081257;28;46293;-74
2022/08/23 02:40:12;;;;;;;;;2.67;2.67;;;;;20.42;73.81;101018.09;5081444;28;45238;-75
2022/08/23 02:42:38;;;;;;;;;2.00;2.00;;;;;20.42;74.25;101009.19;5081952;28;45212;-75
2022/08/23 02:45:04;;;;;;;;;2.00;2.00;;;;;20.45;73.79;101011.44;5081448;28;45509;-75
2022/08/23 02:47:30;;;;;;;;;3.33;2.33;;;;;20.45;74.03;101016.81;5081493;27;47490;-75
2022/08/23 02:49:55;;;;;;;;;3.00;2.00;;;;;20.38;74.14;101008.03;5081259;28;45326;-76
2022/08/23 02:52:20;;;;;;;;;4.00;4.00;;;;;20.39;73.86;101018.59;5081439;27;45165;-75
2022/08/23 02:54:46;;;;;;;;;4.00;4.00;;;;;20.41;73.92;101023.75;5081242;28;45292;-76
2022/08/23 02:57:11;;;;;;;;;3.67;3.67;;;;;20.34;74.25;101020.31;5081120;28;45338;-75
2022/08/23 02:59:37;;;;;;;;;2.00;2.00;;;;;20.38;73.91;101021.53;5081096;28;45418;-75
2022/08/23 03:02:03;;;;;;;;;4.00;3.67;;;;;20.40;74.43;101022.09;5081332;28;45294;-75
2022/08/23 03:04:28;;;;;;;;;4.00;4.00;;;;;20.27;74.15;101009.66;5080952;28;45393;-76
2022/08/23 03:06:54;;;;;;;;;3.33;3.33;;;;;20.43;74.59;101029.72;5081038;28;45457;-75
2022/08/23 03:09:19;;;;;;;;;2.00;2.00;;;;;20.43;74.56;101024.31;5080728;28;45291;-75
2022/08/23 03:11:46;;;;;;;;;3.00;3.00;;;;;20.40;74.64;101022.09;5081395;28;45320;-75
2022/08/23 03:14:12;;;;;;;;;4.00;4.00;;;;;20.53;74.50;101039.97;5080683;28;45473;-75
2022/08/23 03:16:39;;;;;;;;;5.67;4.67;;;;;20.55;74.48;101032.44;5083559;27;46028;-75
2022/08/23 03:19:05;;;;;;;;;4.67;4.67;;;;;20.55;74.06;101033.25;5081046;28;45245;-75
2022/08/23 03:21:30;;;;;;;;;2.00;2.00;;;;;20.55;74.45;101033.25;5081161;28;45605;-75
2022/08/23 03:23:55;;;;;;;;;2.33;2.00;;;;;20.54;74.72;101031.63;5080778;28;45492;-75
2022/08/23 03:26:21;;;;;;;;;1.67;1.67;;;;;20.56;74.60;101031.38;5080658;28;45373;-76
2022/08/23 03:28:46;;;;;;;;;3.00;2.00;;;;;20.58;74.50;101033.84;5080911;28;45322;-75
2022/08/23 03:31:13;;;;;;;;;2.00;2.00;;;;;20.49;74.24;101028.78;5081084;28;45302;-75
2022/08/23 03:33:39;;;;;;;;;2.33;2.33;;;;;20.52;74.43;101031.03;5080908;28;45551;-75
2022/08/23 03:36:06;;;;;;;;;2.00;2.00;;;;;20.49;74.78;101023.41;5080818;28;46675;-75
2022/08/23 03:38:32;;;;;;;;;1.00;1.00;;;;;20.43;75.03;101022.47;5079952;28;45330;-75
2022/08/23 03:40:58;;;;;;;;;1.33;1.00;;;;;20.50;75.28;101041.22;5080942;28;45246;-75
2022/08/23 03:43:24;;;;;;;;;1.33;1.33;;;;;20.47;74.93;101028.19;5080457;28;45271;-75
2022/08/23 03:45:50;;;;;;;;;1.00;1.00;;;;;20.52;75.12;101033.72;5080718;28;46202;-75
2022/08/23 03:48:16;;;;;;;;;2.00;1.00;;;;;20.55;75.30;101035.97;5080543;28;45223;-74
2022/08/23 03:50:41;;;;;;;;;2.00;2.00;;;;;20.54;75.25;101026.22;5080624;28;45535;-75
2022/08/23 03:53:07;;;;;;;;;3.00;3.00;;;;;20.57;75.22;101033.03;5080055;28;45318;-75
2022/08/23 03:55:32;;;;;;;;;3.33;2.67;;;;;20.61;75.14;101033.38;5080192;28;45420;-75
2022/08/23 03:57:57;;;;;;;;;2.00;2.00;;;;;20.63;75.10;101039.38;5080337;28;45391;-75
2022/08/23 04:00:23;;;;;;;;;4.00;3.00;;;;;20.62;74.79;101033.13;5080598;28;45434;-76
2022/08/23 04:02:48;;;;;;;;;4.00;4.00;;;;;20.70;74.71;101045.47;5080066;28;45472;-75
2022/08/23 04:05:13;;;;;;;;;5.00;4.00;;;;;20.77;75.04;101048.84;5080393;28;45337;-75
2022/08/23 04:07:39;;;;;;;;;3.00;3.00;;;;;20.84;74.56;101056.03;5079813;28;45429;-75
2022/08/23 04:10:08;;;;;;;;;5.33;4.33;;;;;20.84;74.86;101061.44;5080449;28;45445;-76
2022/08/23 04:12:33;;;;;;;;;2.67;2.67;;;;;20.81;74.81;101065.44;5079990;28;45488;-75
2022/08/23 04:14:58;;;;;;;;;4.00;4.00;;;;;20.79;74.79;101065.66;5080285;28;45674;-75
2022/08/23 04:17:24;;;;;;;;;3.67;3.67;;;;;20.88;74.80;101068.81;5082233;27;45537;-75
2022/08/23 04:19:50;;;;;;;;;4.00;4.00;;;;;20.81;74.26;101060.81;5080056;28;45227;-75
2022/08/23 04:22:17;;;;;;;;;3.67;3.67;;;;;20.83;74.55;101067.91;5080010;28;45416;-76
2022/08/23 04:24:43;;;;;;;;;3.00;3.00;;;;;20.86;74.20;101076.34;5079428;28;45509;-75
2022/08/23 04:27:09;;;;;;;;;3.00;3.00;;;;;20.82;74.82;101072.47;5079913;28;45303;-75
2022/08/23 04:29:34;;;;;;;;;2.33;2.33;;;;;20.81;74.39;101077.03;5079970;28;45456;-75
2022/08/23 04:32:03;;;;;;;;;5.00;4.00;;;;;20.87;74.88;101082.56;5079745;28;45329;-75
2022/08/23 04:34:29;;;;;;;;;3.00;3.00;;;;;20.79;74.81;101072.94;5079834;28;46277;-75
2022/08/23 04:36:54;;;;;;;;;8.00;4.00;;;;;20.78;74.73;101074.00;5079539;28;45227;-75
2022/08/23 04:39:19;;;;;;;;;3.00;3.00;;;;;20.85;74.89;101087.38;5079601;28;45457;-75
2022/08/23 04:44:29;;;;;;;;;4.33;3.00;;;;;20.89;74.88;101081.25;5079572;28;45758;-76
2022/08/23 04:46:54;;;;;;;;;3.33;2.67;;;;;20.95;74.65;101095.72;5079184;28;45238;-76
2022/08/23 04:49:22;;;;;;;;;3.33;2.67;;;;;20.94;74.66;101094.09;5079930;28;45244;-76
2022/08/23 04:51:47;;;;;;;;;3.33;3.33;;;;;21.00;74.72;101095.03;5079664;28;46069;-75
2022/08/23 04:54:13;;;;;;;;;4.00;3.67;;;;;21.00;74.63;101087.75;5078969;28;46707;-75
2022/08/23 04:56:38;;;;;;;;;5.00;4.67;;;;;21.01;75.09;101094.00;5079588;28;45325;-75
2022/08/23 04:59:04;;;;;;;;;3.33;3.33;;;;;21.05;75.00;101098.69;5079525;28;45362;-75
2022/08/23 05:01:29;;;;;;;;;3.00;3.00;;;;;21.03;75.48;101102.66;5079562;28;45527;-75
2022/08/23 05:03:55;;;;;;;;;3.33;3.33;;;;;21.04;75.25;101102.44;5079432;28;45752;-75
2022/08/23 05:06:22;;;;;;;;;4.00;4.00;;;;;21.07;75.18;101101.13;5079156;28;45371;-75
2022/08/23 05:08:47;;;;;;;;;4.00;4.00;;;;;21.11;74.92;101109.59;5079262;28;45522;-75
2022/08/23 05:11:13;;;;;;;;;2.00;2.00;;;;;21.18;74.77;101102.19;5079183;28;45306;-76
2022/08/23 05:13:38;;;;;;;;;3.00;3.00;;;;;21.21;75.11;101107.13;5079077;28;45464;-75
2022/08/23 05:16:04;;;;;;;;;3.00;3.00;;;;;21.21;74.67;101104.41;5082182;27;45266;-75
2022/08/23 05:18:31;;;;;;;;;4.67;4.67;;;;;21.23;74.55;101107.72;5079352;28;45213;-75
2022/08/23 05:20:56;;;;;;;;;4.00;4.00;;;;;21.31;75.09;101126.25;5079210;28;45407;-75
2022/08/23 05:23:22;;;;;;;;;5.00;5.00;;;;;21.30;74.28;101113.81;5078493;28;45334;-75
2022/08/23 05:25:51;;;;;;;;;5.00;3.33;;;;;21.31;74.74;101110.03;5079246;28;45365;-75
2022/08/23 05:28:18;;;;;;;;;3.67;3.67;;;;;21.34;74.19;101107.94;5080197;28;45313;-76
2022/08/23 05:30:44;;;;;;;;;5.00;4.00;;;;;21.37;74.58;101104.75;5082795;28;45570;-76
2022/08/23 05:33:09;;;;;;;;;4.00;4.00;;;;;21.41;74.74;101117.56;5082417;28;45663;-75
2022/08/23 05:35:35;;;;;;;;;4.00;4.00;;;;;21.40;74.66;101113.19;5082569;28;45322;-76
2022/08/23 05:38:00;;;;;;;;;5.33;5.33;;;;;21.41;74.93;101114.03;5074238;28;45389;-75
2022/08/23 05:40:27;;;;;;;;;5.33;4.00;;;;;21.37;74.66;101102.84;5068425;28;45295;-75
2022/08/23 05:42:53;;;;;;;;;5.00;5.00;;;;;21.39;74.62;101108.84;5062410;28;46701;-75
2022/08/23 05:45:18;;;;;;;;;6.00;6.00;;;;;21.38;74.12;101112.63;5076207;28;45328;-75
2022/08/23 05:47:43;;;;;;;;;6.00;4.00;;;;;21.35;74.23;101112.28;5082537;28;45302;-75
2022/08/23 05:50:09;;;;;;;;;4.33;4.33;;;;;21.38;74.77;101109.91;5082653;28;45456;-75
2022/08/23 05:52:34;;;;;;;;;5.33;3.00;;;;;21.40;74.68;101109.69;5081763;28;46591;-77
2022/08/23 05:55:00;;;;;;;;;6.33;4.67;;;;;21.40;74.39;101105.09;5082331;28;45347;-77
2022/08/23 05:57:26;;;;;;;;;3.00;3.00;;;;;21.42;74.28;101111.09;5082368;28;45263;-77
2022/08/23 05:59:51;;;;;;;;;2.00;2.00;;;;;21.44;74.42;101108.16;5082195;28;45370;-77
2022/08/23 06:02:16;;;;;;;;;3.00;3.00;;;;;21.42;74.58;101112.94;5082275;28;46448;-77
2022/08/23 06:04:42;;;;;;;;;2.67;2.67;;;;;21.44;74.32;101118.97;5080209;28;45338;-77
2022/08/23 06:07:08;;;;;;;;;2.00;2.00;;;;;21.40;74.24;101107.78;5082572;27;45356;-77
2022/08/23 06:09:34;;;;;;;;;2.00;2.00;;;;;21.42;74.59;101104.84;5081946;28;46186;-77
2022/08/23 06:11:59;;;;;;;;;2.33;2.33;;;;;21.47;74.46;101121.19;5082993;28;46416;-79
2022/08/23 06:14:25;;;;;;;;;2.00;2.00;;;;;21.44;74.49;101108.97;5083977;28;45277;-78
2022/08/23 06:16:50;;;;;;;;;1.33;1.33;;;;;21.49;74.37;101113.63;5083359;27;45333;-77
2022/08/23 06:19:16;;;;;;;;;2.33;2.33;;;;;21.45;74.16;101120.59;5080023;28;45251;-77
2022/08/23 06:21:42;;;;;;;;;1.00;1.00;;;;;21.44;74.50;101124.38;5083620;28;45426;-77
2022/08/23 06:24:07;;;;;;;;;1.00;1.00;;;;;21.39;74.54;101116.97;5079323;28;45339;-77
2022/08/23 06:26:37;;;;;;;;;2.00;2.00;;;;;21.43;74.71;101134.34;5078830;28;45412;-76
2022/08/23 06:29:07;;;;;;;;;1.00;1.00;;;;;21.38;74.95;101114.50;5083110;27;45456;-79
2022/08/23 06:31:46;;;;;;;;;0.33;0.33;;;;;21.42;73.95;101123.78;5085279;28;45635;-76
2022/08/23 06:34:33;;;;;;;;;2.00;2.00;;;;;21.42;74.46;101119.19;5083478;28;45243;-77
2022/08/23 06:37:05;;;;;;;;;3.00;3.00;;;;;21.42;74.62;101116.50;5071438;27;44767;-77
2022/08/23 06:39:32;;;;;;;;;3.33;2.00;;;;;21.54;74.60;101124.56;5072205;28;45312;-77
2022/08/23 06:42:00;;;;;;;;;5.67;2.33;;;;;21.59;74.24;101136.56;5081034;28;45580;-77
2022/08/23 06:44:27;;;;;;;;;1.00;1.00;;;;;21.55;74.42;101120.78;5083149;28;45534;-76
2022/08/23 06:46:54;;;;;;;;;1.67;1.67;;;;;21.65;74.25;101130.19;5082516;27;45734;-76
2022/08/23 06:49:19;;;;;;;;;0.00;0.00;;;;;21.69;74.03;101132.19;5078630;28;45357;-75
2022/08/23 06:51:49;;;;;;;;;2.00;0.00;;;;;21.82;73.80;101133.81;5081590;28;46291;-78
2022/08/23 06:54:19;;;;;;;;;1.00;1.00;;;;;21.90;74.18;101134.47;5085520;28;45329;-77
2022/08/23 06:56:45;;;;;;;;;2.00;2.00;;;;;21.88;74.34;101123.09;5084063;28;45326;-77
2022/08/23 06:59:11;;;;;;;;;2.00;2.00;;;;;21.99;73.68;101135.75;5095318;27;45487;-78
2022/08/23 07:01:39;;;;;;;;;2.33;2.33;;;;;22.10;73.15;101141.34;5081246;28;45239;-78
2022/08/23 07:04:06;;;;;;;;;1.33;1.33;;;;;22.15;73.18;101146.88;5077040;28;45352;-77
2022/08/23 07:06:32;;;;;;;;;2.33;2.33;;;;;22.17;73.17;101133.91;5073998;28;45496;-77
2022/08/23 07:08:57;;;;;;;;;2.33;2.33;;;;;22.25;72.92;101143.50;5081031;28;45450;-79
2022/08/23 07:11:24;;;;;;;;;2.67;1.00;;;;;22.41;73.46;101150.00;5081250;28;45396;-77
2022/08/23 07:13:51;;;;;;;;;2.00;2.00;;;;;22.45;73.09;101129.53;5081018;28;45352;-77
2022/08/23 07:16:18;;;;;;;;;2.00;1.00;;;;;22.63;72.71;101152.03;5083736;27;45472;-77
2022/08/23 07:18:45;;;;;;;;;1.00;1.00;;;;;22.76;72.58;101156.31;5080944;28;45299;-77
2022/08/23 07:21:11;;;;;;;;;2.00;2.00;;;;;22.74;72.41;101151.13;5078675;28;46240;-79
2022/08/23 07:23:38;;;;;;;;;2.00;2.00;;;;;22.79;72.23;101153.94;5080147;28;45557;-78
2022/08/23 07:26:08;;;;;;;;;1.33;1.33;;;;;22.86;72.03;101164.59;5080724;28;45400;-78
2022/08/23 07:28:34;;;;;;;;;1.33;1.33;;;;;22.92;71.97;101169.03;5080773;28;45420;-78
2022/08/23 07:31:12;;;;;;;;;2.00;2.00;;;;;22.92;72.38;101158.19;5080654;28;46460;-82
2022/08/23 07:33:38;;;;;;;;;3.00;3.00;;;;;22.98;72.25;101166.41;5076015;28;46810;-80
2022/08/23 07:36:05;;;;;;;;;2.00;2.00;;;;;23.11;72.70;101176.91;5080760;28;45454;-81
2022/08/23 07:38:31;;;;;;;;;4.33;3.00;;;;;23.19;72.63;101170.22;5080333;28;45374;-79
2022/08/23 07:40:57;;;;;;;;;4.00;4.00;;;;;23.26;72.51;101179.03;5075143;28;46479;-82
2022/08/23 07:43:23;;;;;;;;;3.00;3.00;;;;;23.29;71.92;101159.50;5077641;28;45243;-78
2022/08/23 07:45:48;;;;;;;;;4.67;4.00;;;;;23.45;71.12;101167.91;5079844;27;45437;-80
2022/08/23 07:48:14;;;;;;;;;6.00;6.00;;;;;23.62;71.45;101180.59;5063531;28;45522;-77
2022/08/23 07:50:40;;;;;;;;;3.00;2.00;;;;;23.69;71.10;101176.63;5072090;28;45298;-77
2022/08/23 07:53:08;;;;;;;;;6.00;3.00;;;;;23.79;70.34;101173.19;5059073;28;45375;-78
2022/08/23 07:55:33;;;;;;;;;4.67;3.67;;;;;23.81;69.92;101181.91;5059953;28;45574;-77
2022/08/23 07:57:59;;;;;;;;;3.00;3.00;;;;;23.79;70.16;101165.06;5062948;28;45542;-78
2022/08/23 08:00:25;;;;;;;;;4.00;4.00;;;;;23.86;69.46;101167.59;5067716;28;45451;-77
2022/08/23 08:02:50;;;;;;;;;6.00;4.00;;;;;23.93;69.28;101178.22;5059835;28;45340;-76
2022/08/23 08:05:15;;;;;;;;;2.00;2.00;;;;;23.96;69.00;101175.84;5059772;28;45454;-77
2022/08/23 08:07:41;;;;;;;;;3.33;3.33;;;;;24.06;69.11;101194.13;5065647;28;45625;-77
2022/08/23 08:10:07;;;;;;;;;2.33;2.33;;;;;24.17;68.93;101181.50;5079586;28;45718;-77
2022/08/23 08:12:43;;;;;;;;;4.00;3.33;;;;;24.30;68.88;101184.91;5051169;28;45418;-77
2022/08/23 08:15:09;;;;;;;;;5.00;4.00;;;;;24.42;68.40;101177.41;5051804;28;45497;-77
2022/08/23 08:17:34;;;;;;;;;3.00;2.67;;;;;24.58;68.30;101180.25;5039686;28;45477;-77
2022/08/23 08:19:59;;;;;;;;;4.00;4.00;;;;;24.70;67.56;101188.25;5032524;28;47103;-76
2022/08/23 08:22:25;;;;;;;;;3.67;2.67;;;;;24.78;67.74;101187.75;5042136;27;45269;-76
2022/08/23 08:24:50;;;;;;;;;3.67;3.67;;;;;24.86;67.15;101186.47;5032027;28;45413;-76
2022/08/23 08:27:15;;;;;;;;;5.00;4.67;;;;;25.00;66.57;101186.03;5108857;27;45367;-76
2022/08/23 08:29:42;;;;;;;;;4.67;4.33;;;;;25.04;66.36;101182.53;5032343;28;45236;-76
2022/08/23 08:32:08;;;;;;;;;9.33;7.00;;;;;25.13;65.83;101191.03;5032080;28;45427;-76
2022/08/23 08:34:34;;;;;;;;;16.00;14.67;;;;;25.19;65.59;101194.59;5031999;28;45411;-76
2022/08/23 08:36:59;;;;;;;;;9.00;9.00;;;;;25.18;65.43;101191.06;5032043;28;45472;-75
2022/08/23 08:39:28;;;;;;;;;12.33;11.67;;;;;25.25;65.50;101179.94;5046834;28;48866;-76
2022/08/23 08:42:03;;;;;;;;;9.67;8.00;;;;;25.31;64.67;101192.50;5031897;28;45360;-76
2022/08/23 08:44:44;;;;;;;;;9.67;8.67;;;;;25.33;65.53;101182.19;5027776;28;45362;-76
2022/08/23 08:47:20;;;;;;;;;8.00;8.00;;;;;25.48;64.72;101191.50;5032068;28;45368;-76
2022/08/23 08:50:01;;;;;;;;;7.33;7.00;;;;;25.52;64.81;101189.88;5040175;28;45313;-76
2022/08/23 08:52:32;;;;;;;;;11.33;11.33;;;;;25.51;64.73;101190.97;5030531;27;47369;-75
2022/08/23 08:55:11;;;;;;;;;11.00;10.00;;;;;25.59;64.93;101204.09;5031828;28;45291;-77
2022/08/23 08:57:40;;;;;;;;;4.67;4.00;;;;;25.55;64.17;101193.97;5031453;28;45346;-76
2022/08/23 09:00:11;;;;;;;;;7.00;7.00;;;;;25.62;63.92;101196.47;5032454;28;45492;-77
2022/08/23 09:02:37;;;;;;;;;5.33;4.67;;;;;25.64;64.28;101195.13;5031764;28;45275;-78
2022/08/23 09:05:13;;;;;;;;;3.33;3.00;;;;;25.71;64.31;101201.13;5031616;28;45292;-77
2022/08/23 09:08:28;;;;;;;;;5.33;5.33;;;;;25.80;64.23;101187.84;5031585;28;45350;-77
2022/08/23 09:11:15;;;;;;;;;6.00;5.00;;;;;25.91;64.07;101193.31;5047079;27;45408;-76
2022/08/23 09:14:05;;;;;;;;;3.33;3.33;;;;;26.02;63.53;101200.44;5031495;28;45325;-76
2022/08/23 09:16:48;;;;;;;;;3.00;3.00;;;;;26.12;63.17;101204.28;5039154;28;45357;-76
2022/08/23 09:19:14;;;;;;;;;5.00;5.00;;;;;26.17;63.28;101193.38;5031871;28;45426;-75
2022/08/23 09:22:03;;;;;;;;;4.67;3.00;;;;;26.22;63.22;101198.84;5110042;27;45566;-75
2022/08/23 09:24:29;;;;;;;;;3.33;2.67;;;;;26.27;63.53;101193.41;5032324;28;45428;-76
2022/08/23 09:26:55;;;;;;;;;4.67;4.00;;;;;26.33;62.89;101195.06;5049250;28;45499;-78
2022/08/23 09:29:29;;;;;;;;;3.00;3.00;;;;;26.42;62.71;101187.19;5032544;28;45463;-76
2022/08/23 09:32:26;;;;;;;;;4.00;4.00;;;;;26.53;61.99;101192.63;5016998;28;45343;-75
2022/08/23 09:35:05;;;;;;;;;4.33;4.33;;;;;26.52;62.38;101183.66;5018840;28;47113;-75
2022/08/23 09:37:46;;;;;;;;;4.00;3.00;;;;;26.64;62.43;101204.38;5123527;27;45966;-76
2022/08/23 09:40:19;;;;;;;;;4.00;4.00;;;;;26.69;61.65;101201.63;5026982;28;45305;-77
2022/08/23 09:42:46;;;;;;;;;3.00;3.00;;;;;26.72;61.88;101193.75;5017222;28;45305;-77
2022/08/23 09:45:34;;;;;;;;;5.67;5.67;;;;;26.83;61.57;101199.19;5017276;28;46556;-78
2022/08/23 09:47:59;;;;;;;;;4.33;4.33;;;;;26.91;60.95;101197.81;5103217;27;45516;-78
2022/08/23 09:50:32;;;;;;;;;3.00;3.00;;;;;27.03;60.49;101200.28;5013640;28;45364;-78
2022/08/23 09:53:02;;;;;;;;;2.00;2.00;;;;;27.15;61.12;101203.53;5019394;28;45402;-77
2022/08/23 09:55:30;;;;;;;;;2.75;2.75;;;;;27.29;60.36;101192.84;5012179;28;46795;-77
2022/08/23 09:57:58;;;;;;;;;3.00;3.00;;;;;27.36;59.75;101198.03;5021150;28;45400;-76
2022/08/23 10:00:32;;;;;;;;;2.00;2.00;;;;;27.43;59.37;101189.53;5021269;28;45335;-78
2022/08/23 10:03:28;;;;;;;;;3.00;3.00;;;;;27.47;58.25;101187.88;5027883;28;45230;-78
2022/08/23 10:05:59;;;;;;;;;3.00;3.00;;;;;27.47;58.41;101187.88;5030029;28;46416;-78
2022/08/23 10:08:36;;;;;;;;;3.67;3.67;;;;;27.49;57.69;101180.25;5017243;28;45252;-77
2022/08/23 10:11:17;;;;;;;;;2.00;2.00;;;;;27.51;58.40;101182.69;5028241;28;45384;-77
2022/08/23 10:13:43;;;;;;;;;3.00;3.00;;;;;27.59;58.87;101177.47;5020167;28;45329;-77
2022/08/23 10:16:30;;;;;;;;;1.00;1.00;;;;;27.71;58.51;101181.81;5035858;28;45536;-77
2022/08/23 10:19:22;;;;;;;;;3.67;3.67;;;;;27.82;58.28;101172.47;5036743;27;45768;-77
2022/08/23 10:21:50;;;;;;;;;4.00;4.00;;;;;27.82;58.35;101166.19;5022913;28;45489;-75
2022/08/23 10:24:22;;;;;;;;;4.00;4.00;;;;;27.92;58.22;101173.53;5016972;27;45402;-75
2022/08/23 10:27:02;;;;;;;;;4.67;4.00;;;;;28.04;57.80;101171.25;5012789;28;47343;-77
2022/08/23 10:29:37;;;;;;;;;2.00;2.00;;;;;28.08;57.29;101175.06;5029882;28;45385;-75
2022/08/23 10:32:12;;;;;;;;;2.67;2.67;;;;;28.11;57.33;101165.50;5017281;28;45250;-76
2022/08/23 10:35:01;;;;;;;;;2.00;2.00;;;;;28.09;56.57;101170.41;5016092;27;45634;-76
2022/08/23 10:37:58;;;;;;;;;1.67;1.67;;;;;28.19;54.70;101172.28;5016794;27;45279;-76
2022/08/23 10:40:39;;;;;;;;;1.00;1.00;;;;;28.29;55.86;101165.91;5017213;28;45418;-76
2022/08/23 10:43:24;;;;;;;;;1.00;1.00;;;;;28.33;55.98;101173.28;5016265;27;45819;-75
2022/08/23 10:45:49;;;;;;;;;2.00;2.00;;;;;28.25;55.28;101168.38;5027190;28;45239;-77
2022/08/23 10:48:28;;;;;;;;;2.00;2.00;;;;;28.26;54.67;101170.03;5028735;27;46449;-76
2022/08/23 10:51:03;;;;;;;;;2.00;2.00;;;;;28.34;55.47;101169.44;5020557;27;45526;-76
2022/08/23 10:53:45;;;;;;;;;1.50;1.50;;;;;28.40;56.00;101161.22;5023956;28;45428;-76
2022/08/23 10:56:16;;;;;;;;;1.00;1.00;;;;;28.57;55.06;101155.31;5016356;28;45235;-76
2022/08/23 10:59:08;;;;;;;;;3.00;3.00;;;;;28.63;54.45;101153.34;5015947;28;45641;-76
2022/08/23 11:01:45;;;;;;;;;1.00;1.00;;;;;28.61;54.32;101153.63;5025559;28;45509;-76
2022/08/23 11:04:44;;;;;;;;;2.33;2.33;;;;;28.54;54.48;101148.50;5027190;27;45554;-77
2022/08/23 11:07:22;;;;;;;;;2.75;2.75;;;;;28.70;54.57;101162.84;5026897;28;45438;-76
2022/08/23 11:10:02;;;;;;;;;2.25;2.25;;;;;28.89;54.16;101164.88;5028373;28;46190;-78
2022/08/23 11:12:30;;;;;;;;;2.25;2.25;;;;;29.02;54.07;101149.72;5032868;28;45478;-77
2022/08/23 11:15:01;;;;;;;;;1.00;1.00;;;;;29.13;54.03;101152.34;5019483;27;45445;-77
2022/08/23 11:17:33;;;;;;;;;1.50;1.50;;;;;29.09;53.27;101154.84;5020864;28;45488;-76
2022/08/23 11:20:03;;;;;;;;;3.00;3.00;;;;;28.99;52.65;101155.75;5032041;28;46450;-77
2022/08/23 11:22:51;;;;;;;;;2.00;2.00;;;;;28.95;52.96;101158.28;5018302;27;45493;-78
2022/08/23 11:25:16;;;;;;;;;3.00;3.00;;;;;28.92;52.69;101158.00;5034853;27;45213;-76
2022/08/23 11:27:42;;;;;;;;;2.75;2.00;;;;;28.92;53.21;101160.72;5020341;27;46019;-75
2022/08/23 11:30:44;;;;;;;;;1.50;1.50;;;;;29.12;53.07;101162.47;5032570;28;45549;-75
2022/08/23 11:33:20;;;;;;;;;2.00;2.00;;;;;29.41;52.57;101160.75;5031474;28;45295;-76
2022/08/23 11:36:14;;;;;;;;;1.00;1.00;;;;;29.64;51.38;101144.63;5034892;28;45356;-76
2022/08/23 11:38:42;;;;;;;;;3.33;3.33;;;;;29.92;50.49;101155.72;5033372;28;45700;-77
2022/08/23 11:41:13;;;;;;;;;2.33;2.33;;;;;30.01;48.83;101153.16;5017516;27;47307;-77
2022/08/23 11:43:42;;;;;;;;;3.33;3.33;;;;;30.03;49.12;101146.25;5017086;27;45470;-77
2022/08/23 11:46:19;;;;;;;;;3.00;3.00;;;;;30.14;49.55;101154.31;5035407;28;45365;-77